PGUA/UAM METAR and TAF weather

Enter ICAO airport designator
Station Type Date Time Source
PGUA METAR 2020/08/12 17:56 UTC NOAA

PGUA 121756Z 01003KT 10SM FEW120 BKN210 25/24 A2989 RMK AO2A SHRAE28 SLP112 P0000 60002 T02500236 10253 20246 55008 $


Station Type Date Time Source
PGUA Decoded METAR 2020/08/12 17:56 UTC NOAA

Andersen, Mariana Is, Andersen Air Force Base, GU, United States (PGUA) 13-35N 144-56E 187M
Aug 12, 2020 - 01:56 PM EDT / 2020.08.12 1756 UTC
Wind: from the N (010 degrees) at 3 MPH (3 KT):0
Visibility: 10 mile(s):0
Sky conditions: mostly cloudy
Precipitation last hour: A trace
Temperature: 77.0 F (25.0 C)
Dew Point: 74.5 F (23.6 C)
Relative Humidity: 91%
Pressure (altimeter): 29.89 in. Hg (1012 hPa)
Pressure tendency: 0.02 inches (0.8 hPa) lower than three hours ago
ob: PGUA 121756Z 01003KT 10SM FEW120 BKN210 25/24 A2989 RMK AO2A SHRAE28 SLP112 P0000 60002 T02500236 10253 20246 55008
cycle: 18

Station Type Date Time Source
PGUA TAF 2020/08/12 18:30 UTC NOAA

TAF PGUA 121800Z 1218/1324 21006KT 9999 SCT025 BKN120 QNH2985INS
BECMG 1302/1303 22012KT 6000 -SHRA VCTS BKN015CB QNH2983INS
TEMPO 1305/1309 24010G15KT 6000 -TSRA BKN010CB
BECMG 1309/1310 24006KT 9999 NSW BKN015 QNH2982INS TX31/1302Z TN25/1219Z

Example: see airport list